Time;durP1;ratioP1;P1;durP2;ratioP2;P2;SDS_P1;SDS_P2;PMS_P1;PMS_P2;Temp;Humidity;BMP_temperature;BMP_pressure;BME280_temperature;BME280_humidity;BME280_pressure;Samples;Min_cycle;Max_cycle;Signal;HPM_P1;HPM_P2
2023/02/11 00:01:32;;;;;;;5.85;2.42;;;;;;;;;;21008092;28;20052;-69
2023/02/11 00:11:34;;;;;;;4.57;2.40;;;;;;;;;;21007482;28;20088;-69
2023/02/11 00:21:37;;;;;;;4.30;2.65;;;;;;;;;;21008161;28;20053;-65
2023/02/11 00:31:40;;;;;;;6.70;2.85;;;;;;;;;;21008203;28;20044;-70
2023/02/11 00:41:56;;;;;;;4.82;2.72;;;;;;;;;;21055648;28;20063;-65
2023/02/11 00:52:17;;;;;;;5.03;2.92;;;;;;;;;;21090278;28;20040;-66
2023/02/11 01:02:39;;;;;;;3.15;1.90;;;;;;;;;;21086685;28;20048;-63
2023/02/11 01:13:01;;;;;;;6.35;2.67;;;;;;;;;;21087922;28;20157;-71
2023/02/11 01:23:22;;;;;;;4.72;2.97;;;;;;;;;;21085860;28;20056;-67
2023/02/11 01:33:31;;;;;;;6.15;2.70;;;;;;;;;;21086164;28;20443;-70
2023/02/11 01:43:39;;;;;;;4.85;2.85;;;;;;;;;;21084322;28;20055;-68
2023/02/11 02:04:02;;;;;;;3.95;2.47;;;;;;;;;;21084926;28;20501;-70
2023/02/11 02:14:04;;;;;;;7.53;2.67;;;;;;;;;;21083750;28;20059;-67
2023/02/11 02:24:07;;;;;;;5.55;2.67;;;;;;;;;;21082637;28;20051;-72
2023/02/11 02:34:29;;;;;;;4.43;2.80;;;;;;;;;;21081386;28;20470;-71
2023/02/11 02:44:33;;;;;;;7.00;2.42;;;;;;;;;;21079788;28;20056;-67
2023/02/11 02:54:35;;;;;;;7.28;3.03;;;;;;;;;;21080809;28;20058;-72
2023/02/11 03:04:58;;;;;;;6.25;2.75;;;;;;;;;;21088839;28;20044;-72
2023/02/11 03:15:06;;;;;;;6.50;3.33;;;;;;;;;;20664216;28;20073;-72
2023/02/11 03:25:09;;;;;;;5.70;3.60;;;;;;;;;;20660992;28;20496;-66
2023/02/11 03:35:24;;;;;;;9.30;4.30;;;;;;;;;;20673379;28;20512;-72
2023/02/11 03:45:30;;;;;;;8.63;4.07;;;;;;;;;;20692390;28;20045;-72
2023/02/11 03:55:36;;;;;;;7.00;4.10;;;;;;;;;;21008902;28;20056;-67
2023/02/11 04:05:39;;;;;;;11.18;4.10;;;;;;;;;;21009560;28;20076;-72
2023/02/11 04:15:43;;;;;;;7.47;4.22;;;;;;;;;;21008931;28;20056;-72
2023/02/11 04:25:50;;;;;;;6.80;4.10;;;;;;;;;;21009316;28;20465;-72
2023/02/11 04:35:59;;;;;;;10.27;4.50;;;;;;;;;;21004692;28;20059;-67
2023/02/11 04:46:04;;;;;;;8.13;4.43;;;;;;;;;;21088261;28;20052;-69
2023/02/11 04:56:06;;;;;;;7.18;4.03;;;;;;;;;;21087953;28;20097;-70
2023/02/11 05:06:09;;;;;;;9.48;3.95;;;;;;;;;;21088376;28;20048;-70
2023/02/11 05:16:12;;;;;;;4.72;3.20;;;;;;;;;;21087613;28;20190;-69
2023/02/11 05:26:15;;;;;;;5.78;3.22;;;;;;;;;;21087465;28;20127;-68
2023/02/11 05:36:17;;;;;;;6.45;3.05;;;;;;;;;;21084706;28;20109;-70
2023/02/11 05:46:19;;;;;;;5.93;2.72;;;;;;;;;;21085640;28;20501;-70
2023/02/11 05:56:21;;;;;;;4.18;2.22;;;;;;;;;;21084363;28;20052;-69
2023/02/11 06:06:24;;;;;;;5.18;2.63;;;;;;;;;;21082430;28;20059;-71
2023/02/11 06:16:27;;;;;;;7.00;3.00;;;;;;;;;;21083753;28;20044;-67
2023/02/11 06:26:29;;;;;;;6.80;2.47;;;;;;;;;;21098585;28;20122;-70
2023/02/11 06:36:31;;;;;;;8.40;2.45;;;;;;;;;;21081373;28;20052;-66
2023/02/11 06:46:33;;;;;;;5.28;2.67;;;;;;;;;;21082979;28;20051;-70
2023/02/11 06:56:35;;;;;;;4.15;2.38;;;;;;;;;;21082271;28;20091;-68
2023/02/11 07:06:37;;;;;;;6.20;3.65;;;;;;;;;;21081999;28;20492;-71
2023/02/11 07:16:40;;;;;;;4.57;2.65;;;;;;;;;;21080713;28;20432;-72
2023/02/11 07:26:41;;;;;;;6.07;2.70;;;;;;;;;;21078426;28;20044;-72
2023/02/11 07:36:44;;;;;;;5.50;2.45;;;;;;;;;;21078626;28;20052;-70
2023/02/11 07:46:47;;;;;;;5.45;2.70;;;;;;;;;;21077186;28;20044;-71
2023/02/11 07:56:50;;;;;;;8.50;3.60;;;;;;;;;;21078188;28;20052;-69
2023/02/11 08:06:55;;;;;;;9.10;2.50;;;;;;;;;;21059157;28;20080;-71
2023/02/11 08:16:58;;;;;;;4.75;2.50;;;;;;;;;;21069239;28;20131;-66
2023/02/11 08:26:59;;;;;;;6.50;2.25;;;;;;;;;;21090038;28;20051;-66
2023/02/11 08:37:01;;;;;;;5.32;2.60;;;;;;;;;;21090547;28;20409;-72
2023/02/11 08:47:03;;;;;;;6.20;2.40;;;;;;;;;;21090190;28;20404;-64
2023/02/11 08:57:05;;;;;;;6.00;2.60;;;;;;;;;;21089973;28;20123;-69
2023/02/11 09:07:08;;;;;;;6.90;2.70;;;;;;;;;;21087331;28;20048;-68
2023/02/11 09:17:10;;;;;;;6.60;2.33;;;;;;;;;;21087254;28;20050;-64
2023/02/11 09:27:12;;;;;;;6.53;2.67;;;;;;;;;;21086799;28;20106;-62
2023/02/11 09:37:14;;;;;;;5.20;2.30;;;;;;;;;;21084471;28;20062;-64
2023/02/11 09:47:27;;;;;;;4.93;2.42;;;;;;;;;;21065661;28;20457;-64
2023/02/11 09:57:34;;;;;;;4.90;1.95;;;;;;;;;;21084785;28;20043;-67
2023/02/11 10:07:53;;;;;;;4.47;2.08;;;;;;;;;;21083522;28;20188;-63
2023/02/11 10:18:24;;;;;;;6.43;2.08;;;;;;;;;;21080651;28;20048;-65
2023/02/11 10:28:31;;;;;;;5.65;2.35;;;;;;;;;;21081671;28;20409;-68
2023/02/11 10:38:35;;;;;;;5.53;2.25;;;;;;;;;;21079056;28;20063;-64
2023/02/11 10:48:49;;;;;;;6.53;2.13;;;;;;;;;;21079626;28;20044;-69
2023/02/11 10:59:01;;;;;;;3.03;1.30;;;;;;;;;;21079634;28;20058;-65
2023/02/11 11:09:03;;;;;;;4.25;2.20;;;;;;;;;;21081391;28;20044;-64
2023/02/11 11:19:08;;;;;;;2.85;1.77;;;;;;;;;;21078044;28;20048;-71
2023/02/11 11:29:15;;;;;;;2.67;1.60;;;;;;;;;;21078219;28;20496;-70
2023/02/11 11:39:20;;;;;;;4.40;1.67;;;;;;;;;;21077764;28;20494;-67
2023/02/11 11:49:31;;;;;;;5.50;1.80;;;;;;;;;;21086312;28;20079;-65
2023/02/11 11:59:33;;;;;;;6.38;2.00;;;;;;;;;;21093127;28;20058;-66
2023/02/11 12:09:41;;;;;;;4.50;1.33;;;;;;;;;;21091594;28;20044;-64
2023/02/11 12:19:46;;;;;;;3.45;1.10;;;;;;;;;;21090045;28;20048;-64
2023/02/11 12:29:48;;;;;;;3.80;1.30;;;;;;;;;;21084689;28;20154;-62
2023/02/11 12:39:55;;;;;;;4.05;1.55;;;;;;;;;;21089012;28;20522;-66
2023/02/11 12:50:04;;;;;;;4.00;1.30;;;;;;;;;;21089525;28;20123;-66
2023/02/11 13:00:15;;;;;;;3.97;1.73;;;;;;;;;;21087857;28;20044;-65
2023/02/11 13:10:28;;;;;;;7.50;1.95;;;;;;;;;;21087403;28;20048;-64
2023/02/11 13:20:46;;;;;;;2.83;1.48;;;;;;;;;;21086577;28;20056;-73
2023/02/11 13:30:56;;;;;;;3.97;1.48;;;;;;;;;;21086248;28;20493;-71
2023/02/11 13:41:03;;;;;;;2.45;1.58;;;;;;;;;;21084262;28;20056;-72
2023/02/11 13:51:09;;;;;;;3.22;1.50;;;;;;;;;;21084263;28;20044;-62
2023/02/11 14:01:31;;;;;;;1.27;0.80;;;;;;;;;;21084371;28;20394;-69
2023/02/11 14:11:40;;;;;;;3.92;1.48;;;;;;;;;;21081059;28;20097;-64
2023/02/11 14:21:44;;;;;;;3.08;1.00;;;;;;;;;;21081826;28;20052;-68
2023/02/11 14:32:02;;;;;;;2.25;0.90;;;;;;;;;;21082723;28;20055;-72
2023/02/11 14:42:05;;;;;;;2.73;1.20;;;;;;;;;;21079007;28;20048;-72
2023/02/11 14:52:19;;;;;;;1.98;1.00;;;;;;;;;;21080634;28;20051;-72
2023/02/11 15:02:23;;;;;;;2.20;0.85;;;;;;;;;;21078824;28;20086;-71
2023/02/11 15:12:26;;;;;;;3.45;0.63;;;;;;;;;;21085186;28;20390;-70
2023/02/11 15:22:31;;;;;;;3.83;1.38;;;;;;;;;;21132213;28;20059;-67
2023/02/11 15:32:35;;;;;;;3.17;1.25;;;;;;;;;;21101246;28;20429;-71
2023/02/11 15:42:38;;;;;;;2.67;0.75;;;;;;;;;;21095103;28;20056;-71
2023/02/11 15:52:42;;;;;;;1.83;0.80;;;;;;;;;;21097043;28;20070;-63
2023/02/11 16:02:45;;;;;;;2.92;1.20;;;;;;;;;;21093646;28;20063;-63
2023/02/11 16:13:13;;;;;;;12.02;6.15;;;;;;;;;;21093004;28;20052;-65
2023/02/11 16:23:23;;;;;;;3.63;1.40;;;;;;;;;;21088607;28;20048;-72
2023/02/11 16:33:25;;;;;;;3.30;1.05;;;;;;;;;;21091391;28;20452;-73
2023/02/11 16:43:27;;;;;;;1.80;0.75;;;;;;;;;;21089226;28;20056;-71
2023/02/11 16:53:29;;;;;;;8.48;2.55;;;;;;;;;;21088317;28;20052;-72
2023/02/11 17:03:36;;;;;;;5.10;2.08;;;;;;;;;;21069397;28;20052;-71
2023/02/11 17:13:40;;;;;;;1.42;0.80;;;;;;;;;;21087961;28;20044;-72
2023/02/11 17:23:42;;;;;;;1.20;0.70;;;;;;;;;;21085280;28;20048;-72
2023/02/11 17:33:44;;;;;;;3.13;1.00;;;;;;;;;;21086145;28;20078;-71
2023/02/11 17:43:46;;;;;;;6.50;3.47;;;;;;;;;;21084068;28;20085;-63
2023/02/11 17:53:48;;;;;;;5.50;1.58;;;;;;;;;;21083777;28;20055;-71
2023/02/11 18:03:50;;;;;;;3.78;1.10;;;;;;;;;;21083319;28;20052;-68
2023/02/11 18:13:53;;;;;;;4.60;2.00;;;;;;;;;;21081806;28;20135;-70
2023/02/11 18:23:56;;;;;;;3.85;2.15;;;;;;;;;;21081747;28;20093;-68
2023/02/11 18:33:59;;;;;;;2.25;1.23;;;;;;;;;;21081267;28;20405;-70
2023/02/11 18:44:03;;;;;;;6.68;2.60;;;;;;;;;;21079618;28;20063;-69
2023/02/11 18:54:05;;;;;;;6.03;1.85;;;;;;;;;;21079829;28;20116;-68
2023/02/11 19:04:08;;;;;;;2.95;1.60;;;;;;;;;;21079726;28;20048;-69
2023/02/11 19:14:10;;;;;;;4.68;2.10;;;;;;;;;;21079360;28;20040;-62
2023/02/11 19:24:14;;;;;;;4.13;1.70;;;;;;;;;;21079166;28;20079;-69
2023/02/11 19:34:18;;;;;;;4.90;2.25;;;;;;;;;;21078330;28;20128;-72
2023/02/11 19:44:20;;;;;;;9.63;5.07;;;;;;;;;;21077062;28;20063;-63
2023/02/11 19:54:25;;;;;;;6.53;3.13;;;;;;;;;;21077919;28;20097;-67
2023/02/11 20:04:30;;;;;;;7.03;2.47;;;;;;;;;;21076562;28;20055;-63
2023/02/11 20:14:32;;;;;;;5.90;2.63;;;;;;;;;;21090880;28;20176;-70
2023/02/11 20:24:35;;;;;;;7.60;3.35;;;;;;;;;;21090144;28;20044;-63
2023/02/11 20:34:37;;;;;;;8.50;3.42;;;;;;;;;;21089585;28;20135;-71
2023/02/11 20:44:38;;;;;;;5.35;2.60;;;;;;;;;;21088797;28;20056;-68
2023/02/11 20:54:40;;;;;;;6.57;2.78;;;;;;;;;;21089231;28;20048;-72
2023/02/11 21:04:43;;;;;;;5.05;2.95;;;;;;;;;;21088759;28;20101;-71
2023/02/11 21:14:45;;;;;;;7.30;3.45;;;;;;;;;;21087347;28;20047;-73
2023/02/11 21:24:47;;;;;;;7.93;3.75;;;;;;;;;;21084222;28;20052;-73
2023/02/11 21:34:48;;;;;;;10.65;4.50;;;;;;;;;;21085683;28;20054;-73
2023/02/11 21:44:50;;;;;;;6.65;3.45;;;;;;;;;;21083912;28;20513;-72
2023/02/11 21:54:53;;;;;;;6.03;3.30;;;;;;;;;;21084915;28;20467;-72
2023/02/11 22:04:55;;;;;;;9.98;5.05;;;;;;;;;;21082619;28;20044;-71
2023/02/11 22:14:58;;;;;;;9.85;4.63;;;;;;;;;;21081976;28;20489;-69
2023/02/11 22:25:02;;;;;;;7.63;4.28;;;;;;;;;;21082464;28;20129;-72
2023/02/11 22:35:04;;;;;;;8.57;3.58;;;;;;;;;;21080367;28;20071;-72
2023/02/11 22:45:06;;;;;;;7.60;3.72;;;;;;;;;;21079830;28;20056;-62
2023/02/11 22:55:08;;;;;;;5.38;3.55;;;;;;;;;;21080629;28;20109;-68
2023/02/11 23:05:12;;;;;;;6.78;2.65;;;;;;;;;;21078931;28;20044;-71
2023/02/11 23:15:15;;;;;;;6.30;3.00;;;;;;;;;;21079347;28;20056;-66
2023/02/11 23:25:18;;;;;;;4.68;3.00;;;;;;;;;;21077953;28;20091;-74
2023/02/11 23:35:23;;;;;;;6.28;2.95;;;;;;;;;;21078791;28;20055;-65
2023/02/11 23:45:27;;;;;;;7.93;3.20;;;;;;;;;;21086172;28;20127;-73
2023/02/11 23:55:29;;;;;;;5.57;3.03;;;;;;;;;;21094145;28;20048;-72
